createdAt,value
2018-07-23T00:00:29.082Z,93.91
2018-07-23T00:01:29.260Z,93.53
2018-07-23T00:02:29.685Z,93.63
2018-07-23T00:03:29.628Z,93.82
2018-07-23T00:04:29.821Z,93.53
2018-07-23T00:05:29.995Z,93.91
2018-07-23T00:06:30.174Z,93.82
2018-07-23T00:07:30.352Z,92.86
2018-07-23T00:08:30.542Z,93.05
2018-07-23T00:09:30.714Z,93.34
2018-07-23T00:10:30.910Z,92.09
2018-07-23T00:11:31.062Z,92.19
2018-07-23T00:12:31.266Z,93.05
2018-07-23T00:13:31.420Z,92.67
2018-07-23T00:14:31.603Z,93.15
2018-07-23T00:15:31.794Z,94.26
2018-07-23T00:16:31.969Z,94.16
2018-07-23T00:17:32.132Z,93.96
2018-07-23T00:18:32.311Z,93.87
2018-07-23T00:19:32.499Z,93.58
2018-07-23T00:20:32.679Z,93.73
2018-07-23T00:21:32.859Z,93.49
2018-07-23T00:22:33.056Z,93.58
2018-07-23T00:23:33.235Z,93.19
2018-07-23T00:24:33.427Z,93.19
2018-07-23T00:25:33.607Z,93.58
2018-07-23T00:26:33.794Z,93.87
2018-07-23T00:27:33.974Z,93.39
2018-07-23T00:28:34.167Z,93.05
2018-07-23T00:29:34.333Z,93.10
2018-07-23T00:30:34.526Z,93.24
2018-07-23T00:31:34.719Z,92.67
2018-07-23T00:32:34.901Z,93.19
2018-07-23T00:33:35.075Z,92.67
2018-07-23T00:34:35.261Z,93.15
2018-07-23T00:35:35.440Z,92.91
2018-07-23T00:36:35.856Z,92.91
2018-07-23T00:37:35.804Z,93.19
2018-07-23T00:38:35.982Z,92.72
2018-07-23T00:39:36.170Z,92.81
2018-07-23T00:40:36.368Z,92.62
2018-07-23T00:41:36.531Z,92.81
2018-07-23T00:42:36.704Z,92.72
2018-07-23T00:43:36.883Z,92.43
2018-07-23T00:44:37.072Z,92.43
2018-07-23T00:45:37.250Z,92.43
2018-07-23T00:46:37.438Z,92.43
2018-07-23T00:47:37.612Z,92.14
2018-07-23T00:48:37.795Z,92.43
2018-07-23T00:49:37.967Z,92.72
2018-07-23T00:50:38.158Z,92.24
2018-07-23T00:51:38.337Z,92.43
2018-07-23T00:52:38.528Z,92.52
2018-07-23T00:53:38.702Z,93.19
2018-07-23T00:54:38.888Z,93.01
2018-07-23T00:55:39.067Z,93.19
2018-07-23T00:56:39.246Z,92.62
2018-07-23T00:57:39.434Z,93.01
2018-07-23T00:58:39.610Z,92.91
2018-07-23T00:59:39.794Z,93.25
2018-07-23T01:00:39.974Z,93.15
2018-07-23T01:01:40.162Z,93.34
2018-07-23T01:02:40.335Z,93.54
2018-07-23T01:03:40.516Z,93.63
2018-07-23T01:04:40.697Z,93.44
2018-07-23T01:05:40.878Z,93.44
2018-07-23T01:06:41.060Z,93.92
2018-07-23T01:07:41.228Z,93.34
2018-07-23T01:08:41.413Z,93.92
2018-07-23T01:09:41.598Z,93.15
2018-07-23T01:10:41.781Z,93.54
2018-07-23T01:11:41.964Z,93.44
2018-07-23T01:12:42.143Z,93.92
2018-07-23T01:13:42.320Z,93.73
2018-07-23T01:14:42.505Z,93.82
2018-07-23T01:15:42.687Z,94.78
2018-07-23T01:16:42.873Z,94.78
2018-07-23T01:17:43.048Z,94.69
2018-07-23T01:18:43.248Z,94.11
2018-07-23T01:19:43.433Z,93.82
2018-07-23T01:20:43.621Z,93.92
2018-07-23T01:21:43.799Z,94.59
2018-07-23T01:22:43.979Z,94.01
2018-07-23T01:23:44.168Z,94.01
2018-07-23T01:24:44.344Z,94.11
2018-07-23T01:25:44.523Z,93.92
2018-07-23T01:26:44.755Z,94.49
2018-07-23T01:27:44.978Z,93.73
2018-07-23T01:28:45.071Z,94.01
2018-07-23T01:29:45.251Z,93.92
2018-07-23T01:30:45.440Z,93.54
2018-07-23T01:31:45.627Z,93.82
2018-07-23T01:32:45.805Z,93.92
2018-07-23T01:33:45.984Z,93.34
2018-07-23T01:34:46.167Z,94.21
2018-07-23T01:35:46.352Z,94.31
2018-07-23T01:36:46.531Z,93.63
2018-07-23T01:37:46.730Z,93.54
2018-07-23T01:38:46.909Z,94.40
2018-07-23T01:39:47.093Z,94.54
2018-07-23T01:40:47.286Z,95.98
2018-07-23T01:41:47.468Z,96.27
2018-07-23T01:42:47.653Z,95.60
2018-07-23T01:43:47.831Z,95.70
2018-07-23T01:44:48.011Z,95.60
2018-07-23T01:45:48.233Z,94.64
2018-07-23T01:46:48.423Z,94.93
2018-07-23T01:47:48.597Z,94.26
2018-07-23T01:48:48.784Z,94.35
2018-07-23T01:49:48.973Z,94.26
2018-07-23T01:50:49.150Z,94.35
2018-07-23T01:51:49.350Z,95.03
2018-07-23T01:52:49.505Z,94.74
2018-07-23T01:53:49.691Z,94.83
2018-07-23T01:54:49.875Z,94.64
2018-07-23T01:55:50.054Z,94.83
2018-07-23T01:56:50.239Z,94.83
2018-07-23T01:57:50.417Z,94.83
2018-07-23T01:58:50.841Z,95.03
2018-07-23T01:59:50.775Z,94.74
2018-07-23T02:00:50.965Z,95.60
2018-07-23T02:01:51.148Z,95.50
2018-07-23T02:02:51.323Z,95.41
2018-07-23T02:03:51.503Z,94.74
2018-07-23T02:04:51.689Z,94.83
2018-07-23T02:05:51.868Z,95.50
2018-07-23T02:06:52.049Z,95.50
2018-07-23T02:07:52.228Z,95.46
2018-07-23T02:08:52.409Z,95.70
2018-07-23T02:09:52.592Z,95.60
2018-07-23T02:10:52.775Z,95.60
2018-07-23T02:11:52.954Z,95.41
2018-07-23T02:12:53.139Z,95.50
2018-07-23T02:13:53.318Z,95.60
2018-07-23T02:14:53.500Z,94.74
2018-07-23T02:15:53.924Z,94.64
2018-07-23T02:16:53.860Z,94.69
2018-07-23T02:17:54.045Z,95.41
2018-07-23T02:18:54.223Z,95.12
2018-07-23T02:19:54.407Z,95.03
2018-07-23T02:20:54.590Z,94.69
2018-07-23T02:21:54.760Z,94.83
2018-07-23T02:22:54.943Z,94.74
2018-07-23T02:23:55.122Z,94.64
2018-07-23T02:24:55.305Z,93.97
2018-07-23T02:25:55.490Z,93.97
2018-07-23T02:26:55.668Z,93.82
2018-07-23T02:27:55.853Z,94.35
2018-07-23T02:28:56.032Z,94.79
2018-07-23T02:29:56.208Z,94.69
2018-07-23T02:30:56.392Z,95.07
2018-07-23T02:31:56.571Z,94.98
2018-07-23T02:32:56.762Z,94.98
2018-07-23T02:33:56.939Z,94.40
2018-07-23T02:34:57.115Z,95.36
2018-07-23T02:35:57.294Z,94.88
2018-07-23T02:36:57.472Z,94.49
2018-07-23T02:37:57.665Z,94.31
2018-07-23T02:38:57.850Z,94.31
2018-07-23T02:39:58.030Z,95.36
2018-07-23T02:40:58.209Z,95.17
2018-07-23T02:41:58.387Z,96.03
2018-07-23T02:42:58.571Z,95.65
2018-07-23T02:43:58.758Z,95.55
2018-07-23T02:44:58.934Z,96.51
2018-07-23T02:45:59.115Z,96.42
2018-07-23T02:46:59.297Z,96.03
2018-07-23T02:47:59.472Z,95.94
2018-07-23T02:48:59.652Z,95.36
2018-07-23T02:49:59.832Z,95.65
2018-07-23T02:51:00.017Z,95.65
2018-07-23T02:52:00.200Z,95.46
2018-07-23T02:53:00.380Z,95.55
2018-07-23T02:54:00.565Z,95.55
2018-07-23T02:55:00.752Z,95.94
2018-07-23T02:56:00.933Z,95.55
2018-07-23T02:57:01.116Z,95.65
2018-07-23T02:58:01.301Z,96.03
2018-07-23T02:59:01.484Z,95.84
2018-07-23T03:00:01.675Z,95.94
2018-07-23T03:01:01.843Z,95.55
2018-07-23T03:02:02.017Z,96.13
2018-07-23T03:03:02.202Z,95.60
2018-07-23T03:04:02.381Z,95.75
2018-07-23T03:05:02.561Z,95.84
2018-07-23T03:06:02.750Z,95.75
2018-07-23T03:07:02.938Z,95.94
2018-07-23T03:08:03.125Z,95.46
2018-07-23T03:09:03.298Z,95.55
2018-07-23T03:10:03.470Z,95.17
2018-07-23T03:11:03.655Z,96.03
2018-07-23T03:12:03.831Z,95.75
2018-07-23T03:13:04.030Z,95.65
2018-07-23T03:14:04.193Z,95.75
2018-07-23T03:15:04.373Z,95.65
2018-07-23T03:16:04.552Z,95.36
2018-07-23T03:17:04.742Z,95.65
2018-07-23T03:18:04.910Z,95.84
2018-07-23T03:19:05.090Z,95.65
2018-07-23T03:20:05.269Z,96.13
2018-07-23T03:21:05.447Z,96.03
2018-07-23T03:22:05.625Z,96.32
2018-07-23T03:23:05.810Z,96.99
2018-07-23T03:24:06.184Z,97.09
2018-07-23T03:25:06.323Z,97.56
2018-07-23T03:26:06.533Z,97.86
2018-07-23T03:27:06.784Z,96.99
2018-07-23T03:28:06.859Z,96.89
2018-07-23T03:29:07.046Z,97.09
2018-07-23T03:30:07.234Z,96.42
2018-07-23T03:31:07.406Z,96.03
2018-07-23T03:32:07.593Z,96.22
2018-07-23T03:33:07.760Z,95.75
2018-07-23T03:34:07.947Z,95.55
2018-07-23T03:35:08.128Z,95.65
2018-07-23T03:36:08.309Z,95.65
2018-07-23T03:37:08.494Z,96.03
2018-07-23T03:38:08.678Z,95.07
2018-07-23T03:39:08.855Z,95.26
2018-07-23T03:40:09.032Z,94.79
2018-07-23T03:41:09.218Z,95.46
2018-07-23T03:42:09.390Z,95.55
2018-07-23T03:43:09.580Z,95.55
2018-07-23T03:44:09.749Z,96.13
2018-07-23T03:45:09.929Z,96.22
2018-07-23T03:46:10.114Z,96.51
2018-07-23T03:47:10.292Z,96.61
2018-07-23T03:48:10.471Z,96.22
2018-07-23T03:49:10.654Z,95.65
2018-07-23T03:50:10.843Z,95.65
2018-07-23T03:51:11.024Z,95.36
2018-07-23T03:52:11.201Z,95.46
2018-07-23T03:53:11.381Z,95.17
2018-07-23T03:54:11.571Z,95.46
2018-07-23T03:55:11.743Z,95.84
2018-07-23T03:56:11.950Z,95.17
2018-07-23T03:57:12.103Z,95.36
2018-07-23T03:58:12.285Z,95.26
2018-07-23T03:59:12.476Z,94.69
2018-07-23T04:00:12.648Z,94.69
2018-07-23T04:01:12.827Z,94.31
2018-07-23T04:02:13.005Z,94.59
2018-07-23T04:03:13.193Z,94.69
2018-07-23T04:04:13.374Z,94.59
2018-07-23T04:05:13.556Z,94.69
2018-07-23T04:06:13.735Z,94.49
2018-07-23T04:07:13.932Z,94.88
2018-07-23T04:08:14.112Z,94.12
2018-07-23T04:09:14.298Z,93.92
2018-07-23T04:10:14.476Z,94.02
2018-07-23T04:11:14.657Z,93.63
2018-07-23T04:12:15.078Z,93.44
2018-07-23T04:13:15.033Z,93.92
2018-07-23T04:14:15.202Z,93.44
2018-07-23T04:15:15.384Z,93.54
2018-07-23T04:16:15.572Z,93.44
2018-07-23T04:17:15.744Z,94.02
2018-07-23T04:18:15.929Z,93.92
2018-07-23T04:19:16.112Z,93.73
2018-07-23T04:20:16.288Z,93.06
2018-07-23T04:21:16.470Z,93.35
2018-07-23T04:22:16.653Z,93.25
2018-07-23T04:23:16.832Z,93.39
2018-07-23T04:24:17.017Z,93.49
2018-07-23T04:25:17.203Z,93.30
2018-07-23T04:26:17.388Z,93.39
2018-07-23T04:27:17.570Z,93.59
2018-07-23T04:28:17.756Z,93.10
2018-07-23T04:29:17.935Z,93.01
2018-07-23T04:30:18.119Z,92.10
2018-07-23T04:31:18.302Z,92.19
2018-07-23T04:32:18.490Z,91.56
2018-07-23T04:33:18.664Z,89.93
2018-07-23T04:34:18.855Z,88.87
2018-07-23T04:35:19.036Z,88.24
2018-07-23T04:36:19.448Z,87.71
2018-07-23T04:37:19.385Z,87.23
2018-07-23T04:38:19.563Z,86.27
2018-07-23T04:39:19.747Z,85.11
2018-07-23T04:40:19.922Z,85.06
2018-07-23T04:41:20.102Z,83.91
2018-07-23T04:42:20.340Z,83.23
2018-07-23T04:43:20.469Z,83.23
2018-07-23T04:44:20.648Z,82.21
2018-07-23T04:45:20.828Z,82.02
2018-07-23T04:47:21.189Z,81.83
2018-07-23T04:48:21.363Z,81.39
2018-07-23T04:49:21.668Z,80.71
2018-07-23T04:50:21.730Z,80.91
2018-07-23T04:51:21.916Z,80.91
2018-07-23T04:52:22.107Z,80.43
2018-07-23T04:53:22.282Z,80.81
2018-07-23T04:54:22.470Z,80.71
2018-07-23T04:55:22.645Z,80.71
2018-07-23T04:56:22.829Z,80.77
2018-07-23T04:57:23.017Z,80.87
2018-07-23T04:58:23.209Z,80.81
2018-07-23T04:59:23.384Z,79.94
2018-07-23T05:00:23.569Z,79.79
2018-07-23T05:01:23.761Z,79.21
2018-07-23T05:02:23.939Z,78.63
2018-07-23T05:03:24.128Z,78.92
2018-07-23T05:04:24.315Z,78.25
2018-07-23T05:05:24.504Z,78.29
2018-07-23T05:06:24.698Z,77.23
2018-07-23T05:07:24.871Z,76.68
2018-07-23T05:08:25.061Z,76.30
2018-07-23T05:09:25.240Z,75.82
2018-07-23T05:10:25.424Z,75.67
2018-07-23T05:11:25.620Z,75.34
2018-07-23T05:12:25.807Z,75.62
2018-07-23T05:13:25.995Z,75.14
2018-07-23T05:14:26.183Z,75.34
2018-07-23T05:15:26.362Z,75.14
2018-07-23T05:16:26.546Z,75.82
2018-07-23T05:17:26.730Z,76.01
2018-07-23T05:18:26.927Z,76.01
2018-07-23T05:19:27.108Z,76.10
2018-07-23T05:20:27.293Z,75.62
2018-07-23T05:21:27.471Z,75.82
2018-07-23T05:22:27.684Z,76.20
2018-07-23T05:23:27.855Z,75.43
2018-07-23T05:24:28.065Z,76.50
2018-07-23T05:25:28.221Z,76.63
2018-07-23T05:26:28.424Z,76.20
2018-07-23T05:27:28.601Z,76.63
2018-07-23T05:28:28.780Z,75.85
2018-07-23T05:29:28.970Z,75.51
2018-07-23T05:30:29.157Z,75.47
2018-07-23T05:31:29.337Z,76.09
2018-07-23T05:32:29.522Z,76.09
2018-07-23T05:33:29.711Z,75.60
2018-07-23T05:34:29.912Z,74.58
2018-07-23T05:35:30.080Z,73.61
2018-07-23T05:36:30.269Z,73.90
2018-07-23T05:37:30.444Z,72.84
2018-07-23T05:38:30.650Z,72.30
2018-07-23T05:39:30.830Z,71.81
2018-07-23T05:40:31.017Z,71.62
2018-07-23T05:41:31.207Z,72.04
2018-07-23T05:42:31.396Z,71.17
2018-07-23T05:43:31.582Z,71.26
2018-07-23T05:44:31.759Z,71.42
2018-07-23T05:45:31.950Z,71.36
2018-07-23T05:46:32.141Z,71.72
2018-07-23T05:47:32.335Z,73.90
2018-07-23T05:48:32.509Z,73.03
2018-07-23T05:49:32.689Z,71.81
2018-07-23T05:50:32.870Z,72.10
2018-07-23T05:51:33.063Z,72.04
2018-07-23T05:52:33.249Z,71.81
2018-07-23T05:53:33.431Z,73.22
2018-07-23T05:54:33.632Z,74.06
2018-07-23T05:55:33.805Z,73.86
2018-07-23T05:56:33.995Z,74.44
2018-07-23T05:57:34.193Z,75.79
2018-07-23T05:58:34.383Z,77.17
2018-07-23T05:59:34.556Z,80.46
2018-07-23T06:00:34.745Z,82.29
2018-07-23T06:01:34.939Z,82.29
2018-07-23T06:02:35.131Z,80.41
2018-07-23T06:03:35.349Z,77.78
2018-07-23T06:04:35.495Z,75.79
2018-07-23T06:05:35.685Z,74.00
2018-07-23T06:06:35.938Z,73.16
2018-07-23T06:07:36.053Z,71.08
2018-07-23T06:08:36.242Z,70.24
2018-07-23T06:09:36.435Z,70.43
2018-07-23T06:10:36.610Z,69.85
2018-07-23T06:11:36.801Z,69.27
2018-07-23T06:12:37.009Z,68.91
2018-07-23T06:13:37.191Z,69.11
2018-07-23T06:14:37.373Z,68.82
2018-07-23T06:15:37.563Z,68.76
2018-07-23T06:16:37.789Z,68.27
2018-07-23T06:17:37.963Z,67.79
2018-07-23T06:18:38.150Z,68.18
2018-07-23T06:19:38.334Z,67.40
2018-07-23T06:20:38.532Z,67.98
2018-07-23T06:21:38.710Z,67.98
2018-07-23T06:22:38.905Z,69.11
2018-07-23T06:23:39.092Z,68.08
2018-07-23T06:24:39.274Z,68.37
2018-07-23T06:25:39.533Z,67.24
2018-07-23T06:26:39.670Z,66.85
2018-07-23T06:27:39.855Z,65.82
2018-07-23T06:28:40.409Z,65.08
2018-07-23T06:29:40.262Z,64.59
2018-07-23T06:30:40.475Z,64.11
2018-07-23T06:31:40.635Z,64.95
2018-07-23T06:32:40.828Z,65.34
2018-07-23T06:33:41.062Z,64.50
2018-07-23T06:34:41.201Z,65.14
2018-07-23T06:35:41.395Z,66.27
2018-07-23T06:36:41.579Z,65.72
2018-07-23T06:37:41.808Z,64.59
2018-07-23T06:38:41.963Z,63.82
2018-07-23T06:39:42.156Z,63.65
2018-07-23T06:40:42.322Z,62.98
2018-07-23T06:41:42.514Z,62.52
2018-07-23T06:42:42.714Z,62.04
2018-07-23T06:43:42.915Z,62.85
2018-07-23T06:44:43.118Z,62.88
2018-07-23T06:45:43.281Z,64.17
2018-07-23T06:46:43.474Z,64.37
2018-07-23T06:47:43.663Z,63.36
2018-07-23T06:48:43.851Z,63.62
2018-07-23T06:49:44.037Z,62.68
2018-07-23T06:50:44.232Z,61.38
2018-07-23T06:51:44.426Z,60.05
2018-07-23T06:52:44.613Z,61.02
2018-07-23T06:53:44.802Z,61.09
2018-07-23T06:54:45.009Z,62.68
2018-07-23T06:55:45.188Z,64.79
2018-07-23T06:56:45.389Z,69.11
2018-07-23T06:57:45.561Z,67.79
2018-07-23T06:58:45.751Z,68.27
2018-07-23T06:59:45.936Z,68.27
2018-07-23T07:00:46.124Z,68.21
2018-07-23T07:01:46.316Z,65.50
2018-07-23T07:02:46.514Z,66.47
2018-07-23T07:03:46.703Z,66.08
2018-07-23T07:04:46.897Z,65.66
2018-07-23T07:06:47.271Z,62.62
2018-07-23T07:07:47.459Z,62.32
2018-07-23T07:08:47.653Z,61.58
2018-07-23T07:09:47.883Z,61.68
2018-07-23T07:10:48.157Z,62.71
2018-07-23T07:11:48.246Z,62.32
2018-07-23T07:12:48.423Z,61.02
2018-07-23T07:13:48.613Z,60.18
2018-07-23T07:14:48.839Z,60.08
2018-07-23T07:15:49.338Z,59.99
2018-07-23T07:16:49.183Z,58.78
2018-07-23T07:17:49.371Z,58.36
2018-07-23T07:18:49.566Z,58.82
2018-07-23T07:19:49.770Z,59.31
2018-07-23T07:20:49.941Z,58.75
2018-07-23T07:21:50.141Z,58.56
2018-07-23T07:22:50.330Z,59.14
2018-07-23T07:23:50.516Z,60.35
2018-07-23T07:24:50.707Z,61.97
2018-07-23T07:25:50.896Z,62.10
2018-07-23T07:27:51.273Z,60.67
2018-07-23T07:28:51.463Z,58.78
2018-07-23T07:29:51.653Z,57.84
2018-07-23T07:30:51.840Z,56.14
2018-07-23T07:31:52.039Z,56.60
2018-07-23T07:32:52.348Z,57.09
2018-07-23T07:33:52.444Z,56.52
2018-07-23T07:34:52.686Z,55.26
2018-07-23T07:35:52.825Z,55.62
2018-07-23T07:36:53.042Z,57.81
2018-07-23T07:37:53.572Z,59.31
2018-07-23T07:38:53.386Z,59.33
2018-07-23T07:39:53.575Z,58.10
2018-07-23T07:40:53.770Z,58.72
2018-07-23T07:41:53.955Z,59.14
2018-07-23T07:42:54.144Z,58.26
2018-07-23T07:43:54.336Z,57.84
2018-07-23T07:44:54.520Z,56.96
2018-07-23T07:45:54.703Z,55.82
2018-07-23T07:46:54.902Z,55.91
2018-07-23T07:47:55.366Z,55.72
2018-07-23T07:48:55.280Z,54.87
2018-07-23T07:49:55.465Z,54.87
2018-07-23T07:50:55.660Z,53.73
2018-07-23T07:51:55.854Z,54.02
2018-07-23T07:52:56.043Z,54.02
2018-07-23T07:53:56.236Z,55.13
2018-07-23T07:54:56.429Z,55.43
2018-07-23T07:55:56.618Z,55.40
2018-07-23T07:56:56.812Z,55.23
2018-07-23T07:57:57.009Z,55.50
2018-07-23T07:58:57.467Z,55.99
2018-07-23T07:59:57.387Z,55.13
2018-07-23T08:00:57.579Z,54.87
2018-07-23T08:01:57.762Z,53.99
2018-07-23T08:02:57.978Z,54.19
2018-07-23T08:03:58.159Z,53.44
2018-07-23T08:04:58.339Z,52.87
2018-07-23T08:05:58.546Z,53.41
2018-07-23T08:06:58.732Z,53.80
2018-07-23T08:07:58.926Z,53.44
2018-07-23T08:08:59.110Z,53.34
2018-07-23T08:09:59.353Z,53.83
2018-07-23T08:10:59.488Z,53.21
2018-07-23T08:11:59.700Z,54.65
2018-07-23T08:12:59.897Z,53.99
2018-07-23T08:14:00.090Z,53.27
2018-07-23T08:15:00.279Z,52.00
2018-07-23T08:16:00.555Z,52.39
2018-07-23T08:17:00.657Z,51.82
2018-07-23T08:18:00.848Z,51.24
2018-07-23T08:19:01.022Z,51.31
2018-07-23T08:20:01.457Z,52.36
2018-07-23T08:21:01.411Z,51.90
2018-07-23T08:22:01.599Z,51.12
2018-07-23T08:23:01.788Z,49.98
2018-07-23T08:24:01.973Z,50.63
2018-07-23T08:25:02.202Z,50.63
2018-07-23T08:26:02.355Z,50.49
2018-07-23T08:27:02.557Z,50.46
2018-07-23T08:28:02.741Z,50.36
2018-07-23T08:29:02.945Z,51.70
2018-07-23T08:30:03.108Z,50.65
2018-07-23T08:31:03.292Z,49.78
2018-07-23T08:32:03.634Z,50.26
2018-07-23T08:33:03.677Z,50.24
2018-07-23T08:34:03.871Z,50.56
2018-07-23T08:35:04.070Z,50.20
2018-07-23T08:36:04.261Z,49.53
2018-07-23T08:37:04.470Z,49.22
2018-07-23T08:38:04.615Z,48.75
2018-07-23T08:39:04.811Z,49.22
2018-07-23T08:40:05.008Z,49.68
2018-07-23T08:41:05.424Z,50.48
2018-07-23T08:42:05.383Z,51.68
2018-07-23T08:43:05.587Z,51.19
2018-07-23T08:44:05.739Z,50.63
2018-07-23T08:45:06.002Z,51.02
2018-07-23T08:46:06.110Z,53.28
2018-07-23T08:47:06.300Z,53.87
2018-07-23T08:48:06.475Z,53.11
2018-07-23T08:49:06.665Z,52.56
2018-07-23T08:50:06.853Z,51.61
2018-07-23T08:51:07.035Z,52.48
2018-07-23T08:52:07.240Z,54.91
2018-07-23T08:53:07.415Z,53.31
2018-07-23T08:54:07.594Z,52.63
2018-07-23T08:55:07.777Z,53.02
2018-07-23T08:56:08.009Z,53.77
2018-07-23T08:57:08.152Z,53.38
2018-07-23T08:58:08.343Z,52.80
2018-07-23T08:59:08.526Z,53.52
2018-07-23T09:00:08.707Z,55.76
2018-07-23T09:01:08.891Z,54.55
2018-07-23T09:02:09.092Z,53.70
2018-07-23T09:03:09.258Z,53.65
2018-07-23T09:04:09.431Z,53.26
2018-07-23T09:05:09.624Z,54.82
2018-07-23T09:07:09.979Z,52.73
2018-07-23T09:08:10.253Z,51.78
2018-07-23T09:09:10.390Z,50.99
2018-07-23T09:10:10.578Z,51.56
2018-07-23T09:11:10.765Z,51.48
2018-07-23T09:12:10.953Z,50.60
2018-07-23T09:13:11.146Z,49.98
2018-07-23T09:14:11.322Z,49.22
2018-07-23T09:15:11.521Z,49.12
2018-07-23T09:16:11.691Z,48.36
2018-07-23T09:17:11.963Z,48.24
2018-07-23T09:18:12.047Z,48.44
2018-07-23T09:19:12.237Z,48.83
2018-07-23T09:20:12.423Z,48.55
2018-07-23T09:21:12.623Z,47.70
2018-07-23T09:22:12.873Z,47.14
2018-07-23T09:23:13.024Z,46.04
2018-07-23T09:24:13.167Z,46.72
2018-07-23T09:25:13.360Z,46.43
2018-07-23T09:26:13.561Z,45.97
2018-07-23T09:27:13.738Z,45.10
2018-07-23T09:28:13.935Z,42.29
2018-07-23T09:29:14.113Z,40.63
2018-07-23T09:30:14.325Z,39.76
2018-07-23T09:31:14.491Z,39.86
2018-07-23T09:32:14.689Z,40.16
2018-07-23T09:33:15.121Z,39.39
2018-07-23T09:34:15.063Z,38.92
2018-07-23T09:35:15.252Z,38.74
2018-07-23T09:36:15.426Z,38.25
2018-07-23T09:37:15.725Z,37.38
2018-07-23T09:38:15.804Z,36.98
2018-07-23T09:39:15.993Z,37.65
2018-07-23T09:40:16.194Z,37.07
2018-07-23T09:41:16.520Z,37.05
2018-07-23T09:42:16.738Z,37.71
2018-07-23T09:43:16.911Z,38.20
2018-07-23T09:44:17.162Z,38.37
2018-07-23T09:45:17.385Z,39.23
2018-07-23T09:46:17.362Z,39.15
2018-07-23T09:47:17.547Z,38.78
2018-07-23T09:48:17.762Z,38.29
2018-07-23T09:49:17.962Z,37.61
2018-07-23T09:50:18.167Z,37.81
2018-07-23T09:51:18.350Z,38.28
2018-07-23T09:52:18.528Z,39.06
2018-07-23T09:53:18.708Z,39.04
2018-07-23T09:55:19.098Z,39.14
2018-07-23T09:56:19.287Z,39.59
2018-07-23T09:57:19.518Z,39.70
2018-07-23T09:58:19.696Z,40.29
2018-07-23T09:59:19.879Z,39.92
2018-07-23T10:00:20.058Z,40.27
2018-07-23T10:01:20.262Z,40.64
2018-07-23T10:02:20.606Z,40.35
2018-07-23T10:03:20.758Z,41.13
2018-07-23T10:04:20.880Z,40.95
2018-07-23T10:05:21.112Z,40.66
2018-07-23T10:06:21.373Z,40.58
2018-07-23T10:07:21.479Z,40.66
2018-07-23T10:08:21.672Z,40.76
2018-07-23T10:09:21.850Z,40.76
2018-07-23T10:10:22.166Z,40.66
2018-07-23T10:11:22.275Z,40.27
2018-07-23T10:12:22.454Z,40.31
2018-07-23T10:13:22.622Z,39.14
2018-07-23T10:14:22.824Z,39.43
2018-07-23T10:15:23.001Z,39.70
2018-07-23T10:16:23.187Z,39.53
2018-07-23T10:17:23.362Z,40.00
2018-07-23T10:18:23.530Z,41.07
2018-07-23T10:19:23.725Z,39.72
2018-07-23T10:20:23.905Z,40.19
2018-07-23T10:21:24.099Z,40.11
2018-07-23T10:22:24.356Z,39.35
2018-07-23T10:23:24.516Z,39.23
2018-07-23T10:24:24.705Z,39.25
2018-07-23T10:25:24.900Z,40.01
2018-07-23T10:26:25.093Z,39.25
2018-07-23T10:27:25.280Z,39.25
2018-07-23T10:28:25.474Z,39.23
2018-07-23T10:29:25.690Z,38.55
2018-07-23T10:30:25.863Z,38.90
2018-07-23T10:31:26.007Z,39.20
2018-07-23T10:32:26.262Z,39.67
2018-07-23T10:33:26.403Z,39.96
2018-07-23T10:34:26.598Z,40.50
2018-07-23T10:35:26.797Z,40.80
2018-07-23T10:36:26.977Z,40.70
2018-07-23T10:37:27.199Z,40.72
2018-07-23T10:38:27.427Z,40.72
2018-07-23T10:39:27.525Z,40.92
2018-07-23T10:40:27.898Z,40.45
2018-07-23T10:41:27.915Z,40.74
2018-07-23T10:42:28.134Z,40.74
2018-07-23T10:43:28.278Z,40.63
2018-07-23T10:44:28.446Z,41.21
2018-07-23T10:45:28.626Z,41.28
2018-07-23T10:46:28.816Z,41.38
2018-07-23T10:47:29.090Z,41.31
2018-07-23T10:48:29.183Z,40.82
2018-07-23T10:49:29.370Z,40.45
2018-07-23T10:50:29.555Z,41.28
2018-07-23T10:51:29.741Z,41.09
2018-07-23T10:52:29.929Z,40.80
2018-07-23T10:53:30.119Z,41.09
2018-07-23T10:54:30.298Z,41.09
2018-07-23T10:55:30.477Z,40.89
2018-07-23T10:56:30.819Z,40.99
2018-07-23T10:57:30.855Z,41.38
2018-07-23T10:58:31.017Z,40.89
2018-07-23T10:59:31.267Z,40.89
2018-07-23T11:00:31.424Z,40.31
2018-07-23T11:01:31.606Z,40.50
2018-07-23T11:02:31.787Z,40.50
2018-07-23T11:03:31.976Z,40.89
2018-07-23T11:04:32.178Z,40.50
2018-07-23T11:05:32.342Z,40.58
2018-07-23T11:06:32.566Z,40.86
2018-07-23T11:07:32.682Z,41.35
2018-07-23T11:08:32.897Z,41.27
2018-07-23T11:09:33.101Z,41.56
2018-07-23T11:10:33.297Z,40.97
2018-07-23T11:11:33.466Z,40.88
2018-07-23T11:12:33.643Z,40.68
2018-07-23T11:13:33.806Z,40.39
2018-07-23T11:14:33.975Z,40.88
2018-07-23T11:15:34.151Z,40.21
2018-07-23T11:16:34.352Z,39.62
2018-07-23T11:17:34.581Z,39.53
2018-07-23T11:18:34.714Z,39.43
2018-07-23T11:19:34.936Z,39.33
2018-07-23T11:20:35.084Z,39.04
2018-07-23T11:21:35.297Z,39.23
2018-07-23T11:22:35.456Z,39.04
2018-07-23T11:23:35.607Z,40.09
2018-07-23T11:24:35.820Z,40.09
2018-07-23T11:25:40.043Z,39.78
2018-07-23T11:26:36.254Z,39.98
2018-07-23T11:27:36.421Z,39.59
2018-07-23T11:28:36.751Z,39.02
2018-07-23T11:29:36.810Z,39.04
2018-07-23T11:30:36.975Z,39.26
2018-07-23T11:31:37.257Z,38.48
2018-07-23T11:32:37.745Z,37.40
2018-07-23T11:33:37.574Z,37.11
2018-07-23T11:34:37.751Z,37.12
2018-07-23T11:35:37.899Z,36.93
2018-07-23T11:36:38.117Z,35.75
2018-07-23T11:37:38.308Z,35.27
2018-07-23T11:38:38.508Z,36.05
2018-07-23T11:39:38.667Z,34.97
2018-07-23T11:40:38.853Z,36.05
2018-07-23T11:41:39.147Z,36.05
2018-07-23T11:43:39.400Z,35.84
2018-07-23T11:44:39.572Z,36.15
2018-07-23T11:45:39.731Z,35.95
2018-07-23T11:46:39.944Z,35.58
2018-07-23T11:47:40.088Z,35.58
2018-07-23T11:48:40.357Z,35.48
2018-07-23T11:49:40.434Z,35.87
2018-07-23T11:50:40.639Z,35.40
2018-07-23T11:51:40.825Z,35.22
2018-07-23T11:52:40.991Z,34.83
2018-07-23T11:53:41.221Z,34.81
2018-07-23T11:54:41.356Z,35.11
2018-07-23T11:55:41.535Z,34.91
2018-07-23T11:56:41.752Z,33.84
2018-07-23T11:57:41.915Z,33.43
2018-07-23T11:58:42.098Z,33.82
2018-07-23T11:59:42.306Z,33.53
2018-07-23T12:00:42.478Z,34.01
2018-07-23T12:01:42.701Z,34.31
2018-07-23T12:02:42.843Z,34.70
2018-07-23T12:03:43.018Z,34.62
2018-07-23T12:04:43.416Z,34.81
2018-07-23T12:05:43.421Z,35.38
2018-07-23T12:06:43.585Z,35.95
2018-07-23T12:07:43.785Z,36.05
2018-07-23T12:08:43.937Z,35.85
2018-07-23T12:09:44.879Z,36.07
2018-07-23T12:10:44.302Z,35.97
2018-07-23T12:11:44.490Z,35.58
2018-07-23T12:12:44.635Z,35.68
2018-07-23T12:13:44.809Z,35.77
2018-07-23T12:14:45.011Z,35.28
2018-07-23T12:15:45.185Z,35.40
2018-07-23T12:16:45.408Z,35.01
2018-07-23T12:17:45.546Z,35.58
2018-07-23T12:18:45.765Z,35.97
2018-07-23T12:19:45.953Z,36.26
2018-07-23T12:20:46.130Z,36.08
2018-07-23T12:21:46.312Z,35.61
2018-07-23T12:22:46.623Z,36.20
2018-07-23T12:23:46.970Z,36.08
2018-07-23T12:24:46.834Z,36.57
2018-07-23T12:25:47.007Z,36.67
2018-07-23T12:26:47.502Z,37.06
2018-07-23T12:27:47.401Z,36.79
2018-07-23T12:28:47.579Z,36.30
2018-07-23T12:29:47.739Z,36.12
2018-07-23T12:30:47.929Z,35.24
2018-07-23T12:31:48.100Z,35.73
2018-07-23T12:32:48.294Z,35.16
2018-07-23T12:33:48.474Z,35.06
2018-07-23T12:34:48.675Z,34.36
2018-07-23T12:35:48.853Z,34.03
2018-07-23T12:36:49.033Z,34.31
2018-07-23T12:37:49.210Z,34.11
2018-07-23T12:38:49.394Z,34.31
2018-07-23T12:39:49.666Z,34.70
2018-07-23T12:40:49.770Z,34.60
2018-07-23T12:41:49.975Z,35.28
2018-07-23T12:42:50.131Z,36.04
2018-07-23T12:43:50.314Z,36.72
2018-07-23T12:44:50.496Z,37.50
2018-07-23T12:45:50.678Z,36.52
2018-07-23T12:46:50.864Z,36.44
2018-07-23T12:47:51.059Z,35.95
2018-07-23T12:48:51.247Z,35.75
2018-07-23T12:49:51.426Z,35.85
2018-07-23T12:50:51.616Z,36.15
2018-07-23T12:51:51.791Z,36.05
2018-07-23T12:52:51.979Z,35.85
2018-07-23T12:53:52.161Z,36.05
2018-07-23T12:54:52.359Z,35.95
2018-07-23T12:55:52.534Z,35.95
2018-07-23T12:56:52.728Z,35.85
2018-07-23T12:57:52.903Z,36.05
2018-07-23T12:58:53.110Z,36.24
2018-07-23T12:59:53.326Z,35.95
2018-07-23T13:00:53.483Z,35.09